sensor_id;sensor_type;location;lat;lon;timestamp;pressure;altitude;pressure_sealevel;temperature;humidity
55687;BME280;41911;52.362;4.978;2022-07-29T00:00:30;101912.82;;;18.66;36.87
55687;BME280;41911;52.362;4.978;2022-07-29T00:01:01;101910.85;;;18.67;36.84
55687;BME280;41911;52.362;4.978;2022-07-29T00:01:32;101912.87;;;18.61;36.86
55687;BME280;41911;52.362;4.978;2022-07-29T00:02:05;101911.73;;;18.70;36.85
55687;BME280;41911;52.362;4.978;2022-07-29T00:02:38;101909.84;;;18.71;36.87
55687;BME280;41911;52.362;4.978;2022-07-29T00:03:10;101908.79;;;18.64;36.97
55687;BME280;41911;52.362;4.978;2022-07-29T00:03:41;101910.38;;;18.51;37.05
55687;BME280;41911;52.362;4.978;2022-07-29T00:04:13;101907.84;;;18.52;36.97
55687;BME280;41911;52.362;4.978;2022-07-29T00:04:44;101908.83;;;18.57;36.86
55687;BME280;41911;52.362;4.978;2022-07-29T00:05:15;101910.47;;;18.63;36.84
55687;BME280;41911;52.362;4.978;2022-07-29T00:05:46;101908.72;;;18.52;36.90
55687;BME280;41911;52.362;4.978;2022-07-29T00:06:17;101908.03;;;18.58;36.62
55687;BME280;41911;52.362;4.978;2022-07-29T00:06:48;101907.82;;;18.60;36.69
55687;BME280;41911;52.362;4.978;2022-07-29T00:07:19;101905.81;;;18.66;36.57
55687;BME280;41911;52.362;4.978;2022-07-29T00:07:51;101904.13;;;18.61;36.72
55687;BME280;41911;52.362;4.978;2022-07-29T00:08:22;101903.62;;;18.72;36.56
55687;BME280;41911;52.362;4.978;2022-07-29T00:08:53;101902.08;;;18.75;36.58
55687;BME280;41911;52.362;4.978;2022-07-29T00:09:24;101903.22;;;18.79;36.59
55687;BME280;41911;52.362;4.978;2022-07-29T00:09:56;101904.43;;;18.70;36.79
55687;BME280;41911;52.362;4.978;2022-07-29T00:10:27;101902.88;;;18.75;36.82
55687;BME280;41911;52.362;4.978;2022-07-29T00:10:58;101900.01;;;18.82;36.79
55687;BME280;41911;52.362;4.978;2022-07-29T00:11:29;101902.35;;;18.63;37.00
55687;BME280;41911;52.362;4.978;2022-07-29T00:12:01;101905.21;;;18.40;37.34
55687;BME280;41911;52.362;4.978;2022-07-29T00:12:32;101902.07;;;18.29;37.18
55687;BME280;41911;52.362;4.978;2022-07-29T00:13:03;101901.30;;;18.66;37.09
55687;BME280;41911;52.362;4.978;2022-07-29T00:13:34;101902.96;;;18.63;37.19
55687;BME280;41911;52.362;4.978;2022-07-29T00:14:05;101899.72;;;18.73;37.06
55687;BME280;41911;52.362;4.978;2022-07-29T00:14:36;101900.86;;;18.68;37.18
55687;BME280;41911;52.362;4.978;2022-07-29T00:15:08;101901.40;;;18.68;37.22
55687;BME280;41911;52.362;4.978;2022-07-29T00:15:39;101900.82;;;19.05;37.19
55687;BME280;41911;52.362;4.978;2022-07-29T00:16:10;101902.15;;;18.78;37.28
55687;BME280;41911;52.362;4.978;2022-07-29T00:16:41;101902.03;;;18.74;37.30
55687;BME280;41911;52.362;4.978;2022-07-29T00:17:12;101900.89;;;18.79;37.34
55687;BME280;41911;52.362;4.978;2022-07-29T00:17:44;101897.62;;;18.79;37.37
55687;BME280;41911;52.362;4.978;2022-07-29T00:18:15;101901.01;;;18.31;37.28
55687;BME280;41911;52.362;4.978;2022-07-29T00:18:46;101895.74;;;18.60;37.16
55687;BME280;41911;52.362;4.978;2022-07-29T00:19:18;101898.62;;;18.73;36.87
55687;BME280;41911;52.362;4.978;2022-07-29T00:19:49;101897.57;;;18.64;36.90
55687;BME280;41911;52.362;4.978;2022-07-29T00:20:21;101897.41;;;18.63;36.92
55687;BME280;41911;52.362;4.978;2022-07-29T00:20:57;101899.20;;;18.21;37.21
55687;BME280;41911;52.362;4.978;2022-07-29T00:21:29;101899.80;;;18.39;37.17
55687;BME280;41911;52.362;4.978;2022-07-29T00:22:00;101896.48;;;18.49;37.13
55687;BME280;41911;52.362;4.978;2022-07-29T00:22:31;101894.85;;;18.87;37.01
55687;BME280;41911;52.362;4.978;2022-07-29T00:23:02;101893.94;;;18.63;37.00
55687;BME280;41911;52.362;4.978;2022-07-29T00:23:34;101892.34;;;18.69;37.01
55687;BME280;41911;52.362;4.978;2022-07-29T00:24:05;101893.11;;;18.76;37.03
55687;BME280;41911;52.362;4.978;2022-07-29T00:24:36;101891.98;;;18.68;36.97
55687;BME280;41911;52.362;4.978;2022-07-29T00:25:08;101892.25;;;18.73;36.95
55687;BME280;41911;52.362;4.978;2022-07-29T00:25:39;101888.73;;;18.54;36.85
55687;BME280;41911;52.362;4.978;2022-07-29T00:26:10;101889.31;;;18.41;36.78
55687;BME280;41911;52.362;4.978;2022-07-29T00:26:41;101888.03;;;18.53;36.84
55687;BME280;41911;52.362;4.978;2022-07-29T00:27:12;101887.64;;;18.21;36.80
55687;BME280;41911;52.362;4.978;2022-07-29T00:27:43;101887.99;;;18.36;36.81
55687;BME280;41911;52.362;4.978;2022-07-29T00:28:14;101884.59;;;18.71;36.63
55687;BME280;41911;52.362;4.978;2022-07-29T00:28:45;101882.78;;;18.59;36.49
55687;BME280;41911;52.362;4.978;2022-07-29T00:29:18;101881.87;;;18.54;36.42
55687;BME280;41911;52.362;4.978;2022-07-29T00:29:50;101885.54;;;18.46;36.60
55687;BME280;41911;52.362;4.978;2022-07-29T00:30:21;101882.76;;;18.45;36.66
55687;BME280;41911;52.362;4.978;2022-07-29T00:30:52;101881.75;;;18.61;36.55
55687;BME280;41911;52.362;4.978;2022-07-29T00:31:23;101881.00;;;18.63;36.64
55687;BME280;41911;52.362;4.978;2022-07-29T00:31:54;101882.88;;;18.62;36.69
55687;BME280;41911;52.362;4.978;2022-07-29T00:32:25;101882.16;;;18.74;36.63
55687;BME280;41911;52.362;4.978;2022-07-29T00:32:56;101880.16;;;18.69;36.77
55687;BME280;41911;52.362;4.978;2022-07-29T00:33:28;101879.43;;;18.72;36.82
55687;BME280;41911;52.362;4.978;2022-07-29T00:34:00;101878.16;;;18.73;36.86
55687;BME280;41911;52.362;4.978;2022-07-29T00:34:31;101877.61;;;18.82;36.86
55687;BME280;41911;52.362;4.978;2022-07-29T00:35:02;101877.36;;;18.67;36.97
55687;BME280;41911;52.362;4.978;2022-07-29T00:35:33;101876.03;;;18.77;36.85
55687;BME280;41911;52.362;4.978;2022-07-29T00:36:05;101876.11;;;18.72;36.90
55687;BME280;41911;52.362;4.978;2022-07-29T00:36:36;101872.25;;;18.51;37.19
55687;BME280;41911;52.362;4.978;2022-07-29T00:37:07;101872.81;;;18.49;37.12
55687;BME280;41911;52.362;4.978;2022-07-29T00:37:38;101870.58;;;18.05;37.24
55687;BME280;41911;52.362;4.978;2022-07-29T00:38:09;101875.54;;;18.05;37.19
55687;BME280;41911;52.362;4.978;2022-07-29T00:38:40;101873.33;;;18.43;37.04
55687;BME280;41911;52.362;4.978;2022-07-29T00:39:11;101873.11;;;18.43;37.00
55687;BME280;41911;52.362;4.978;2022-07-29T00:39:42;101874.32;;;18.59;36.95
55687;BME280;41911;52.362;4.978;2022-07-29T00:40:13;101868.92;;;18.61;36.82
55687;BME280;41911;52.362;4.978;2022-07-29T00:40:45;101871.63;;;18.93;36.83
55687;BME280;41911;52.362;4.978;2022-07-29T00:41:17;101870.03;;;18.59;36.90
55687;BME280;41911;52.362;4.978;2022-07-29T00:41:48;101873.04;;;18.70;36.80
55687;BME280;41911;52.362;4.978;2022-07-29T00:42:20;101869.94;;;18.59;36.82
55687;BME280;41911;52.362;4.978;2022-07-29T00:42:51;101870.29;;;18.65;36.84
55687;BME280;41911;52.362;4.978;2022-07-29T00:43:23;101868.40;;;18.32;37.00
55687;BME280;41911;52.362;4.978;2022-07-29T00:43:54;101866.92;;;18.48;37.06
55687;BME280;41911;52.362;4.978;2022-07-29T00:44:25;101868.74;;;18.65;37.03
55687;BME280;41911;52.362;4.978;2022-07-29T00:44:56;101869.48;;;18.17;37.39
55687;BME280;41911;52.362;4.978;2022-07-29T00:45:28;101868.99;;;18.17;37.81
55687;BME280;41911;52.362;4.978;2022-07-29T00:46:00;101866.53;;;18.29;37.73
55687;BME280;41911;52.362;4.978;2022-07-29T00:46:31;101865.87;;;18.43;37.64
55687;BME280;41911;52.362;4.978;2022-07-29T00:47:02;101866.15;;;18.56;37.44
55687;BME280;41911;52.362;4.978;2022-07-29T00:47:34;101868.32;;;18.59;37.36
55687;BME280;41911;52.362;4.978;2022-07-29T00:48:06;101865.36;;;18.87;37.22
55687;BME280;41911;52.362;4.978;2022-07-29T00:48:37;101865.89;;;18.69;37.26
55687;BME280;41911;52.362;4.978;2022-07-29T00:49:08;101862.77;;;18.36;37.30
55687;BME280;41911;52.362;4.978;2022-07-29T00:49:40;101863.19;;;18.46;37.22
55687;BME280;41911;52.362;4.978;2022-07-29T00:50:13;101863.11;;;18.47;37.30
55687;BME280;41911;52.362;4.978;2022-07-29T00:50:44;101864.34;;;18.66;37.15
55687;BME280;41911;52.362;4.978;2022-07-29T00:51:15;101861.36;;;18.72;37.07
55687;BME280;41911;52.362;4.978;2022-07-29T00:51:47;101862.65;;;18.68;36.79
55687;BME280;41911;52.362;4.978;2022-07-29T00:52:19;101864.75;;;18.73;36.71
55687;BME280;41911;52.362;4.978;2022-07-29T00:52:51;101863.35;;;18.63;36.83
55687;BME280;41911;52.362;4.978;2022-07-29T00:53:23;101863.92;;;18.33;37.00
55687;BME280;41911;52.362;4.978;2022-07-29T00:53:55;101863.56;;;18.42;37.07
55687;BME280;41911;52.362;4.978;2022-07-29T00:54:26;101863.31;;;18.44;36.93
55687;BME280;41911;52.362;4.978;2022-07-29T00:54:58;101863.16;;;18.54;36.80
55687;BME280;41911;52.362;4.978;2022-07-29T00:55:29;101861.36;;;18.53;37.04
55687;BME280;41911;52.362;4.978;2022-07-29T00:56:00;101862.77;;;18.32;37.00
55687;BME280;41911;52.362;4.978;2022-07-29T00:56:32;101860.19;;;18.33;37.03
55687;BME280;41911;52.362;4.978;2022-07-29T00:57:04;101860.32;;;18.43;36.97
55687;BME280;41911;52.362;4.978;2022-07-29T00:57:37;101860.70;;;18.43;37.07
55687;BME280;41911;52.362;4.978;2022-07-29T00:58:08;101858.24;;;18.75;37.08
55687;BME280;41911;52.362;4.978;2022-07-29T00:58:42;101858.70;;;18.50;37.04
55687;BME280;41911;52.362;4.978;2022-07-29T00:59:13;101856.57;;;18.55;36.90
55687;BME280;41911;52.362;4.978;2022-07-29T00:59:44;101858.02;;;18.49;36.99
55687;BME280;41911;52.362;4.978;2022-07-29T01:00:18;101853.73;;;18.52;36.97
55687;BME280;41911;52.362;4.978;2022-07-29T01:00:50;101854.60;;;18.41;37.21
55687;BME280;41911;52.362;4.978;2022-07-29T01:01:21;101852.98;;;18.46;37.11
55687;BME280;41911;52.362;4.978;2022-07-29T01:01:52;101855.41;;;18.49;37.01
55687;BME280;41911;52.362;4.978;2022-07-29T01:02:23;101854.18;;;18.46;36.86
55687;BME280;41911;52.362;4.978;2022-07-29T01:02:54;101853.54;;;18.40;36.98
55687;BME280;41911;52.362;4.978;2022-07-29T01:03:25;101852.29;;;18.47;36.97
55687;BME280;41911;52.362;4.978;2022-07-29T01:03:56;101854.21;;;18.50;36.89
55687;BME280;41911;52.362;4.978;2022-07-29T01:04:27;101852.90;;;18.51;36.94
55687;BME280;41911;52.362;4.978;2022-07-29T01:04:59;101850.84;;;18.56;36.97
55687;BME280;41911;52.362;4.978;2022-07-29T01:05:30;101853.34;;;18.63;36.93
55687;BME280;41911;52.362;4.978;2022-07-29T01:06:01;101850.44;;;18.63;36.85
55687;BME280;41911;52.362;4.978;2022-07-29T01:06:33;101851.56;;;18.68;36.70
55687;BME280;41911;52.362;4.978;2022-07-29T01:07:05;101849.84;;;19.23;36.69
55687;BME280;41911;52.362;4.978;2022-07-29T01:07:37;101849.54;;;18.53;36.67
55687;BME280;41911;52.362;4.978;2022-07-29T01:08:12;101847.68;;;18.94;36.46
55687;BME280;41911;52.362;4.978;2022-07-29T01:08:45;101848.21;;;18.66;36.42
55687;BME280;41911;52.362;4.978;2022-07-29T01:09:18;101849.71;;;18.59;36.57
55687;BME280;41911;52.362;4.978;2022-07-29T01:09:50;101850.49;;;18.36;36.59
55687;BME280;41911;52.362;4.978;2022-07-29T01:10:26;101852.70;;;18.57;36.72
55687;BME280;41911;52.362;4.978;2022-07-29T01:10:59;101848.83;;;18.66;36.76
55687;BME280;41911;52.362;4.978;2022-07-29T01:11:30;101849.19;;;18.77;36.64
55687;BME280;41911;52.362;4.978;2022-07-29T01:12:03;101851.31;;;18.60;36.82
55687;BME280;41911;52.362;4.978;2022-07-29T01:12:36;101850.05;;;18.29;36.87
55687;BME280;41911;52.362;4.978;2022-07-29T01:13:09;101851.10;;;18.58;36.87
55687;BME280;41911;52.362;4.978;2022-07-29T01:13:42;101852.02;;;18.62;36.84
55687;BME280;41911;52.362;4.978;2022-07-29T01:14:14;101854.09;;;17.97;37.63
55687;BME280;41911;52.362;4.978;2022-07-29T01:14:49;101851.59;;;18.19;37.45
55687;BME280;41911;52.362;4.978;2022-07-29T01:15:21;101852.56;;;18.28;37.38
55687;BME280;41911;52.362;4.978;2022-07-29T01:15:58;101851.46;;;18.40;37.39
55687;BME280;41911;52.362;4.978;2022-07-29T01:16:32;101852.76;;;18.49;37.30
55687;BME280;41911;52.362;4.978;2022-07-29T01:17:10;101852.08;;;18.55;37.16
55687;BME280;41911;52.362;4.978;2022-07-29T01:17:44;101850.96;;;18.48;37.16
55687;BME280;41911;52.362;4.978;2022-07-29T01:18:20;101850.35;;;18.48;37.19
55687;BME280;41911;52.362;4.978;2022-07-29T01:19:00;101849.19;;;18.19;37.55
55687;BME280;41911;52.362;4.978;2022-07-29T01:19:51;101850.77;;;18.37;37.43
55687;BME280;41911;52.362;4.978;2022-07-29T01:20:28;101851.23;;;18.05;37.50
55687;BME280;41911;52.362;4.978;2022-07-29T01:21:21;101852.54;;;18.17;37.44
55687;BME280;41911;52.362;4.978;2022-07-29T01:21:59;101846.11;;;18.59;37.31
55687;BME280;41911;52.362;4.978;2022-07-29T01:22:42;101844.56;;;18.37;37.37
55687;BME280;41911;52.362;4.978;2022-07-29T01:23:43;101842.46;;;18.75;37.25
55687;BME280;41911;52.362;4.978;2022-07-29T01:24:37;101838.58;;;18.43;37.30
55687;BME280;41911;52.362;4.978;2022-07-29T01:25:22;101841.58;;;18.67;37.15
55687;BME280;41911;52.362;4.978;2022-07-29T01:26:16;101840.05;;;18.72;37.04
55687;BME280;41911;52.362;4.978;2022-07-29T01:26:58;101839.50;;;18.74;37.11
55687;BME280;41911;52.362;4.978;2022-07-29T01:27:44;101839.63;;;18.56;37.15
55687;BME280;41911;52.362;4.978;2022-07-29T01:28:37;101839.43;;;18.37;37.15
55687;BME280;41911;52.362;4.978;2022-07-29T01:29:15;101841.58;;;18.36;37.08
55687;BME280;41911;52.362;4.978;2022-07-29T01:29:50;101845.84;;;18.08;37.17
55687;BME280;41911;52.362;4.978;2022-07-29T01:30:24;101841.39;;;18.38;37.09
55687;BME280;41911;52.362;4.978;2022-07-29T01:30:56;101843.46;;;18.30;37.08
55687;BME280;41911;52.362;4.978;2022-07-29T01:31:35;101843.25;;;18.37;37.01
55687;BME280;41911;52.362;4.978;2022-07-29T01:32:12;101841.84;;;18.25;37.19
55687;BME280;41911;52.362;4.978;2022-07-29T01:32:47;101842.61;;;18.67;37.12
55687;BME280;41911;52.362;4.978;2022-07-29T01:33:21;101840.18;;;18.61;37.17
55687;BME280;41911;52.362;4.978;2022-07-29T01:33:58;101840.71;;;18.28;37.12
55687;BME280;41911;52.362;4.978;2022-07-29T01:34:40;101842.58;;;18.21;37.17
55687;BME280;41911;52.362;4.978;2022-07-29T01:35:19;101841.25;;;18.19;37.29
55687;BME280;41911;52.362;4.978;2022-07-29T01:35:51;101841.69;;;18.25;37.32
55687;BME280;41911;52.362;4.978;2022-07-29T01:36:35;101842.84;;;18.35;37.10
55687;BME280;41911;52.362;4.978;2022-07-29T01:37:18;101843.91;;;18.36;37.05
55687;BME280;41911;52.362;4.978;2022-07-29T01:37:54;101841.01;;;18.42;37.01
55687;BME280;41911;52.362;4.978;2022-07-29T01:38:28;101840.80;;;18.31;37.10
55687;BME280;41911;52.362;4.978;2022-07-29T01:39:05;101841.30;;;18.34;37.02
55687;BME280;41911;52.362;4.978;2022-07-29T01:39:38;101839.46;;;18.56;37.11
55687;BME280;41911;52.362;4.978;2022-07-29T01:40:18;101840.38;;;18.33;37.15
55687;BME280;41911;52.362;4.978;2022-07-29T01:40:54;101839.63;;;18.26;37.22
55687;BME280;41911;52.362;4.978;2022-07-29T01:41:32;101840.49;;;18.43;37.07
55687;BME280;41911;52.362;4.978;2022-07-29T01:42:12;101840.49;;;18.50;37.11
55687;BME280;41911;52.362;4.978;2022-07-29T01:42:49;101839.67;;;18.34;37.24
55687;BME280;41911;52.362;4.978;2022-07-29T01:43:23;101837.03;;;18.49;37.24
55687;BME280;41911;52.362;4.978;2022-07-29T01:44:01;101838.54;;;18.39;37.20
55687;BME280;41911;52.362;4.978;2022-07-29T01:44:39;101836.60;;;18.57;37.25
55687;BME280;41911;52.362;4.978;2022-07-29T01:45:15;101838.03;;;18.70;37.09
55687;BME280;41911;52.362;4.978;2022-07-29T01:45:50;101836.38;;;18.68;37.07
55687;BME280;41911;52.362;4.978;2022-07-29T01:46:27;101835.97;;;18.73;37.06
55687;BME280;41911;52.362;4.978;2022-07-29T01:47:11;101836.67;;;18.40;37.04
55687;BME280;41911;52.362;4.978;2022-07-29T01:47:46;101833.49;;;18.80;36.82
55687;BME280;41911;52.362;4.978;2022-07-29T01:48:24;101834.02;;;18.86;36.72
55687;BME280;41911;52.362;4.978;2022-07-29T01:49:02;101834.90;;;18.53;36.66
55687;BME280;41911;52.362;4.978;2022-07-29T01:49:41;101833.81;;;18.47;36.55
55687;BME280;41911;52.362;4.978;2022-07-29T01:50:17;101831.12;;;18.90;36.38
55687;BME280;41911;52.362;4.978;2022-07-29T01:50:53;101833.15;;;18.84;36.38
55687;BME280;41911;52.362;4.978;2022-07-29T01:51:33;101835.38;;;18.16;36.69
55687;BME280;41911;52.362;4.978;2022-07-29T01:52:11;101832.81;;;18.23;36.76
55687;BME280;41911;52.362;4.978;2022-07-29T01:52:49;101831.36;;;18.63;36.75
55687;BME280;41911;52.362;4.978;2022-07-29T01:53:29;101832.73;;;18.69;37.22
55687;BME280;41911;52.362;4.978;2022-07-29T01:54:07;101832.15;;;18.64;37.50
55687;BME280;41911;52.362;4.978;2022-07-29T01:54:42;101829.04;;;18.71;37.55
55687;BME280;41911;52.362;4.978;2022-07-29T01:55:15;101830.98;;;18.71;37.92
55687;BME280;41911;52.362;4.978;2022-07-29T01:55:48;101832.78;;;18.41;38.04
55687;BME280;41911;52.362;4.978;2022-07-29T01:56:23;101830.51;;;18.46;38.09
55687;BME280;41911;52.362;4.978;2022-07-29T01:56:56;101829.22;;;18.56;38.17
55687;BME280;41911;52.362;4.978;2022-07-29T01:57:31;101829.21;;;18.50;38.21
55687;BME280;41911;52.362;4.978;2022-07-29T01:58:05;101828.87;;;18.07;38.05
55687;BME280;41911;52.362;4.978;2022-07-29T01:58:41;101830.17;;;18.25;38.01
55687;BME280;41911;52.362;4.978;2022-07-29T01:59:13;101830.27;;;18.59;38.06
55687;BME280;41911;52.362;4.978;2022-07-29T01:59:47;101827.30;;;18.77;38.13
55687;BME280;41911;52.362;4.978;2022-07-29T02:00:20;101825.84;;;18.80;38.21
55687;BME280;41911;52.362;4.978;2022-07-29T02:00:51;101825.23;;;18.11;38.31
55687;BME280;41911;52.362;4.978;2022-07-29T02:01:24;101824.94;;;18.18;38.43
55687;BME280;41911;52.362;4.978;2022-07-29T02:01:58;101826.17;;;18.61;38.36
55687;BME280;41911;52.362;4.978;2022-07-29T02:02:30;101825.59;;;18.71;38.77
55687;BME280;41911;52.362;4.978;2022-07-29T02:03:09;101826.40;;;18.19;38.65
55687;BME280;41911;52.362;4.978;2022-07-29T02:03:45;101828.16;;;18.41;38.73
55687;BME280;41911;52.362;4.978;2022-07-29T02:04:18;101829.43;;;18.17;38.84
55687;BME280;41911;52.362;4.978;2022-07-29T02:04:50;101827.55;;;18.15;38.87
55687;BME280;41911;52.362;4.978;2022-07-29T02:05:24;101828.57;;;18.78;38.86
55687;BME280;41911;52.362;4.978;2022-07-29T02:05:58;101825.07;;;18.96;38.76
55687;BME280;41911;52.362;4.978;2022-07-29T02:06:33;101824.59;;;18.91;38.74
55687;BME280;41911;52.362;4.978;2022-07-29T02:07:07;101824.64;;;18.25;38.76
55687;BME280;41911;52.362;4.978;2022-07-29T02:07:40;101823.26;;;18.92;38.78
55687;BME280;41911;52.362;4.978;2022-07-29T02:08:13;101820.80;;;18.67;38.74
55687;BME280;41911;52.362;4.978;2022-07-29T02:08:47;101822.21;;;18.80;38.77
55687;BME280;41911;52.362;4.978;2022-07-29T02:09:21;101822.02;;;18.51;38.77
55687;BME280;41911;52.362;4.978;2022-07-29T02:09:53;101822.32;;;18.49;38.82
55687;BME280;41911;52.362;4.978;2022-07-29T02:10:29;101821.53;;;19.01;38.32
55687;BME280;41911;52.362;4.978;2022-07-29T02:11:02;101820.28;;;18.69;38.24
55687;BME280;41911;52.362;4.978;2022-07-29T02:11:35;101820.23;;;18.36;38.06
55687;BME280;41911;52.362;4.978;2022-07-29T02:12:10;101820.93;;;18.62;37.98
55687;BME280;41911;52.362;4.978;2022-07-29T02:12:43;101820.46;;;18.68;37.88
55687;BME280;41911;52.362;4.978;2022-07-29T02:13:17;101822.28;;;18.78;37.64
55687;BME280;41911;52.362;4.978;2022-07-29T02:13:49;101822.14;;;18.71;37.70
55687;BME280;41911;52.362;4.978;2022-07-29T02:14:23;101821.83;;;18.74;37.77
55687;BME280;41911;52.362;4.978;2022-07-29T02:14:56;101820.25;;;18.90;37.83
55687;BME280;41911;52.362;4.978;2022-07-29T02:15:32;101819.56;;;18.46;37.93
55687;BME280;41911;52.362;4.978;2022-07-29T02:16:06;101821.13;;;18.58;37.93
55687;BME280;41911;52.362;4.978;2022-07-29T02:16:41;101819.95;;;18.49;38.13
55687;BME280;41911;52.362;4.978;2022-07-29T02:17:13;101816.63;;;19.10;38.08
55687;BME280;41911;52.362;4.978;2022-07-29T02:17:51;101817.55;;;18.24;38.14
55687;BME280;41911;52.362;4.978;2022-07-29T02:18:26;101817.66;;;18.54;38.07
55687;BME280;41911;52.362;4.978;2022-07-29T02:19:01;101818.80;;;18.51;37.98
55687;BME280;41911;52.362;4.978;2022-07-29T02:19:33;101816.29;;;18.53;38.00
55687;BME280;41911;52.362;4.978;2022-07-29T02:20:09;101816.86;;;18.26;38.01
55687;BME280;41911;52.362;4.978;2022-07-29T02:20:42;101816.66;;;18.38;37.98
55687;BME280;41911;52.362;4.978;2022-07-29T02:21:21;101817.76;;;18.60;38.04
55687;BME280;41911;52.362;4.978;2022-07-29T02:21:54;101816.89;;;18.76;38.06
55687;BME280;41911;52.362;4.978;2022-07-29T02:22:28;101815.00;;;18.38;38.13
55687;BME280;41911;52.362;4.978;2022-07-29T02:23:02;101815.84;;;18.78;38.17
55687;BME280;41911;52.362;4.978;2022-07-29T02:23:35;101816.93;;;19.00;38.17
55687;BME280;41911;52.362;4.978;2022-07-29T02:24:09;101815.42;;;18.77;38.11
55687;BME280;41911;52.362;4.978;2022-07-29T02:24:42;101816.11;;;18.33;38.01
55687;BME280;41911;52.362;4.978;2022-07-29T02:25:16;101813.22;;;18.31;38.09
55687;BME280;41911;52.362;4.978;2022-07-29T02:25:50;101814.11;;;18.81;37.62
55687;BME280;41911;52.362;4.978;2022-07-29T02:26:23;101814.63;;;18.77;37.36
55687;BME280;41911;52.362;4.978;2022-07-29T02:26:56;101815.47;;;17.94;37.86
55687;BME280;41911;52.362;4.978;2022-07-29T02:27:30;101817.19;;;18.29;37.80
55687;BME280;41911;52.362;4.978;2022-07-29T02:28:06;101817.36;;;18.72;37.72
55687;BME280;41911;52.362;4.978;2022-07-29T02:28:39;101813.62;;;18.62;37.77
55687;BME280;41911;52.362;4.978;2022-07-29T02:29:12;101815.88;;;18.51;37.81
55687;BME280;41911;52.362;4.978;2022-07-29T02:29:45;101813.67;;;18.63;37.93
55687;BME280;41911;52.362;4.978;2022-07-29T02:30:17;101813.47;;;18.74;37.99
55687;BME280;41911;52.362;4.978;2022-07-29T02:30:51;101813.98;;;18.71;37.98
55687;BME280;41911;52.362;4.978;2022-07-29T02:31:26;101812.92;;;18.53;37.98
55687;BME280;41911;52.362;4.978;2022-07-29T02:32:01;101811.98;;;18.26;37.98
55687;BME280;41911;52.362;4.978;2022-07-29T02:32:34;101813.79;;;18.70;37.87
55687;BME280;41911;52.362;4.978;2022-07-29T02:33:08;101812.56;;;18.78;37.84
55687;BME280;41911;52.362;4.978;2022-07-29T02:33:41;101811.55;;;18.39;38.01
55687;BME280;41911;52.362;4.978;2022-07-29T02:34:13;101812.87;;;18.46;38.14
55687;BME280;41911;52.362;4.978;2022-07-29T02:34:46;101813.62;;;18.47;38.14
55687;BME280;41911;52.362;4.978;2022-07-29T02:35:18;101812.28;;;18.51;38.28
55687;BME280;41911;52.362;4.978;2022-07-29T02:35:52;101813.40;;;18.52;38.34
55687;BME280;41911;52.362;4.978;2022-07-29T02:36:25;101812.25;;;18.46;38.53
55687;BME280;41911;52.362;4.978;2022-07-29T02:36:56;101812.90;;;18.46;38.52
55687;BME280;41911;52.362;4.978;2022-07-29T02:37:29;101816.76;;;18.43;38.58
55687;BME280;41911;52.362;4.978;2022-07-29T02:38:02;101815.16;;;18.50;38.52
55687;BME280;41911;52.362;4.978;2022-07-29T02:38:35;101812.48;;;18.46;38.48
55687;BME280;41911;52.362;4.978;2022-07-29T02:39:08;101814.42;;;18.48;38.52
55687;BME280;41911;52.362;4.978;2022-07-29T02:39:43;101815.37;;;18.62;38.46
55687;BME280;41911;52.362;4.978;2022-07-29T02:40:16;101815.03;;;18.25;38.49
55687;BME280;41911;52.362;4.978;2022-07-29T02:40:48;101814.04;;;18.27;38.52
55687;BME280;41911;52.362;4.978;2022-07-29T02:41:26;101812.59;;;18.38;38.71
55687;BME280;41911;52.362;4.978;2022-07-29T02:42:02;101815.70;;;18.43;38.67
55687;BME280;41911;52.362;4.978;2022-07-29T02:42:36;101815.97;;;18.46;38.62
55687;BME280;41911;52.362;4.978;2022-07-29T02:43:09;101814.92;;;18.07;38.71
55687;BME280;41911;52.362;4.978;2022-07-29T02:43:46;101815.70;;;18.43;38.60
55687;BME280;41911;52.362;4.978;2022-07-29T02:44:20;101815.91;;;18.51;38.53
55687;BME280;41911;52.362;4.978;2022-07-29T02:44:52;101817.19;;;18.10;39.00
55687;BME280;41911;52.362;4.978;2022-07-29T02:45:23;101816.38;;;18.25;38.84
55687;BME280;41911;52.362;4.978;2022-07-29T02:45:55;101815.29;;;18.25;38.81
55687;BME280;41911;52.362;4.978;2022-07-29T02:46:30;101815.03;;;18.35;38.88
55687;BME280;41911;52.362;4.978;2022-07-29T02:47:06;101813.80;;;18.44;38.71
55687;BME280;41911;52.362;4.978;2022-07-29T02:47:42;101816.75;;;18.06;38.83
55687;BME280;41911;52.362;4.978;2022-07-29T02:48:15;101813.31;;;18.23;38.74
55687;BME280;41911;52.362;4.978;2022-07-29T02:48:51;101812.29;;;18.18;38.81
55687;BME280;41911;52.362;4.978;2022-07-29T02:49:32;101813.85;;;18.52;38.80
55687;BME280;41911;52.362;4.978;2022-07-29T02:50:11;101812.05;;;18.17;38.85
55687;BME280;41911;52.362;4.978;2022-07-29T02:50:46;101811.05;;;17.96;38.78
55687;BME280;41911;52.362;4.978;2022-07-29T02:51:34;101810.90;;;18.31;38.64
55687;BME280;41911;52.362;4.978;2022-07-29T02:52:15;101808.61;;;18.01;38.54
55687;BME280;41911;52.362;4.978;2022-07-29T02:52:53;101810.59;;;18.34;38.66
55687;BME280;41911;52.362;4.978;2022-07-29T02:53:29;101811.50;;;18.30;38.58
55687;BME280;41911;52.362;4.978;2022-07-29T02:54:07;101811.31;;;17.85;38.91
55687;BME280;41911;52.362;4.978;2022-07-29T02:54:42;101809.57;;;18.24;38.88
55687;BME280;41911;52.362;4.978;2022-07-29T02:55:19;101806.87;;;18.26;38.84
55687;BME280;41911;52.362;4.978;2022-07-29T02:55:56;101808.84;;;18.15;38.87
55687;BME280;41911;52.362;4.978;2022-07-29T02:56:28;101807.02;;;17.94;38.81
55687;BME280;41911;52.362;4.978;2022-07-29T02:57:09;101807.44;;;18.28;38.77
55687;BME280;41911;52.362;4.978;2022-07-29T02:57:44;101804.72;;;18.28;38.76
55687;BME280;41911;52.362;4.978;2022-07-29T02:58:24;101803.64;;;18.28;38.13